sensor_id;sensor_type;location;lat;lon;timestamp;temperature;humidity
21906;DHT22;11117;48.644;9.006;2022-09-29T00:00:49;7.50;99.90
21906;DHT22;11117;48.644;9.006;2022-09-29T00:03:15;7.60;99.90
21906;DHT22;11117;48.644;9.006;2022-09-29T00:05:49;7.60;99.90
21906;DHT22;11117;48.644;9.006;2022-09-29T00:08:15;7.60;99.90
21906;DHT22;11117;48.644;9.006;2022-09-29T00:10:41;7.50;99.90
21906;DHT22;11117;48.644;9.006;2022-09-29T00:13:07;7.60;99.90
21906;DHT22;11117;48.644;9.006;2022-09-29T00:15:32;7.50;99.90
21906;DHT22;11117;48.644;9.006;2022-09-29T00:17:58;7.60;99.90
21906;DHT22;11117;48.644;9.006;2022-09-29T00:20:23;7.70;99.90
21906;DHT22;11117;48.644;9.006;2022-09-29T00:22:49;7.60;99.90
21906;DHT22;11117;48.644;9.006;2022-09-29T00:25:15;7.60;99.90
21906;DHT22;11117;48.644;9.006;2022-09-29T00:27:41;7.70;99.90
21906;DHT22;11117;48.644;9.006;2022-09-29T00:30:06;7.60;99.90
21906;DHT22;11117;48.644;9.006;2022-09-29T00:32:32;7.60;99.90
21906;DHT22;11117;48.644;9.006;2022-09-29T00:34:57;7.70;99.90
21906;DHT22;11117;48.644;9.006;2022-09-29T00:37:23;7.70;99.90
21906;DHT22;11117;48.644;9.006;2022-09-29T00:39:48;7.80;99.90
21906;DHT22;11117;48.644;9.006;2022-09-29T00:42:17;7.90;99.90
21906;DHT22;11117;48.644;9.006;2022-09-29T00:47:19;7.80;99.90
21906;DHT22;11117;48.644;9.006;2022-09-29T00:49:47;7.90;99.90
21906;DHT22;11117;48.644;9.006;2022-09-29T00:52:22;7.80;99.90
21906;DHT22;11117;48.644;9.006;2022-09-29T00:54:58;7.70;99.90
21906;DHT22;11117;48.644;9.006;2022-09-29T00:57:28;7.80;99.90
21906;DHT22;11117;48.644;9.006;2022-09-29T01:00:08;7.80;99.90
21906;DHT22;11117;48.644;9.006;2022-09-29T01:02:37;7.80;99.90
21906;DHT22;11117;48.644;9.006;2022-09-29T01:05:05;7.90;99.90
21906;DHT22;11117;48.644;9.006;2022-09-29T01:07:32;7.80;99.90
21906;DHT22;11117;48.644;9.006;2022-09-29T01:09:58;7.80;99.90
21906;DHT22;11117;48.644;9.006;2022-09-29T01:12:24;7.70;99.90
21906;DHT22;11117;48.644;9.006;2022-09-29T01:14:52;7.80;99.90
21906;DHT22;11117;48.644;9.006;2022-09-29T01:17:18;7.80;99.90
21906;DHT22;11117;48.644;9.006;2022-09-29T01:20:11;7.80;99.90
21906;DHT22;11117;48.644;9.006;2022-09-29T01:31:33;7.80;99.90
21906;DHT22;11117;48.644;9.006;2022-09-29T01:39:51;8.10;99.90
21906;DHT22;11117;48.644;9.006;2022-09-29T01:42:22;8.20;99.90
21906;DHT22;11117;48.644;9.006;2022-09-29T01:44:56;8.30;99.90
21906;DHT22;11117;48.644;9.006;2022-09-29T01:47:35;8.30;99.90
21906;DHT22;11117;48.644;9.006;2022-09-29T01:50:15;8.40;99.90
21906;DHT22;11117;48.644;9.006;2022-09-29T01:52:49;8.40;99.90
21906;DHT22;11117;48.644;9.006;2022-09-29T01:55:19;8.50;99.90
21906;DHT22;11117;48.644;9.006;2022-09-29T01:57:58;8.50;99.90
21906;DHT22;11117;48.644;9.006;2022-09-29T02:00:25;8.60;99.90
21906;DHT22;11117;48.644;9.006;2022-09-29T02:03:00;8.60;99.90
21906;DHT22;11117;48.644;9.006;2022-09-29T02:05:32;8.60;99.90
21906;DHT22;11117;48.644;9.006;2022-09-29T02:08:37;8.50;99.90
21906;DHT22;11117;48.644;9.006;2022-09-29T02:11:02;8.50;99.90
21906;DHT22;11117;48.644;9.006;2022-09-29T02:13:53;8.60;99.90
21906;DHT22;11117;48.644;9.006;2022-09-29T02:16:18;8.60;99.90
21906;DHT22;11117;48.644;9.006;2022-09-29T02:18:54;8.60;99.90
21906;DHT22;11117;48.644;9.006;2022-09-29T02:21:21;8.60;99.90
21906;DHT22;11117;48.644;9.006;2022-09-29T02:23:48;8.60;99.90
21906;DHT22;11117;48.644;9.006;2022-09-29T02:26:14;8.70;99.90
21906;DHT22;11117;48.644;9.006;2022-09-29T02:28:41;8.70;99.90
21906;DHT22;11117;48.644;9.006;2022-09-29T02:31:07;8.70;99.90
21906;DHT22;11117;48.644;9.006;2022-09-29T02:33:33;8.60;99.90
21906;DHT22;11117;48.644;9.006;2022-09-29T02:38:46;8.60;99.90
21906;DHT22;11117;48.644;9.006;2022-09-29T02:41:20;8.60;99.90
21906;DHT22;11117;48.644;9.006;2022-09-29T02:49:33;8.50;99.90
21906;DHT22;11117;48.644;9.006;2022-09-29T02:54:54;8.60;99.90
21906;DHT22;11117;48.644;9.006;2022-09-29T02:57:30;8.70;99.90
21906;DHT22;11117;48.644;9.006;2022-09-29T03:00:12;8.70;99.90
21906;DHT22;11117;48.644;9.006;2022-09-29T03:02:39;8.60;99.90
21906;DHT22;11117;48.644;9.006;2022-09-29T03:05:08;8.60;99.90
21906;DHT22;11117;48.644;9.006;2022-09-29T03:07:35;8.60;99.90
21906;DHT22;11117;48.644;9.006;2022-09-29T03:10:01;8.60;99.90
21906;DHT22;11117;48.644;9.006;2022-09-29T03:12:28;8.70;99.90
21906;DHT22;11117;48.644;9.006;2022-09-29T03:14:53;8.70;99.90
21906;DHT22;11117;48.644;9.006;2022-09-29T03:17:19;8.70;99.90
21906;DHT22;11117;48.644;9.006;2022-09-29T03:19:48;8.70;99.90
21906;DHT22;11117;48.644;9.006;2022-09-29T03:22:13;8.70;99.90
21906;DHT22;11117;48.644;9.006;2022-09-29T03:24:39;8.70;99.90
21906;DHT22;11117;48.644;9.006;2022-09-29T03:27:05;8.70;99.90
21906;DHT22;11117;48.644;9.006;2022-09-29T03:29:30;8.70;99.90
21906;DHT22;11117;48.644;9.006;2022-09-29T03:31:58;8.60;99.90
21906;DHT22;11117;48.644;9.006;2022-09-29T03:34:24;8.60;99.90
21906;DHT22;11117;48.644;9.006;2022-09-29T03:36:49;8.50;99.90
21906;DHT22;11117;48.644;9.006;2022-09-29T03:39:15;8.50;99.90
21906;DHT22;11117;48.644;9.006;2022-09-29T03:41:40;8.50;99.90
21906;DHT22;11117;48.644;9.006;2022-09-29T03:44:06;8.40;99.90
21906;DHT22;11117;48.644;9.006;2022-09-29T03:46:31;8.30;99.90
21906;DHT22;11117;48.644;9.006;2022-09-29T03:48:57;8.20;99.90
21906;DHT22;11117;48.644;9.006;2022-09-29T03:51:22;8.20;99.90
21906;DHT22;11117;48.644;9.006;2022-09-29T03:53:48;8.10;99.90
21906;DHT22;11117;48.644;9.006;2022-09-29T03:56:13;8.00;99.90
21906;DHT22;11117;48.644;9.006;2022-09-29T03:58:39;7.90;99.90
21906;DHT22;11117;48.644;9.006;2022-09-29T04:01:05;7.80;99.90
21906;DHT22;11117;48.644;9.006;2022-09-29T04:03:33;7.80;99.90
21906;DHT22;11117;48.644;9.006;2022-09-29T04:05:59;7.80;99.90
21906;DHT22;11117;48.644;9.006;2022-09-29T04:08:24;7.60;99.90
21906;DHT22;11117;48.644;9.006;2022-09-29T04:10:50;7.60;99.90
21906;DHT22;11117;48.644;9.006;2022-09-29T04:13:16;7.50;99.90
21906;DHT22;11117;48.644;9.006;2022-09-29T04:15:41;7.50;99.90
21906;DHT22;11117;48.644;9.006;2022-09-29T04:18:07;7.40;99.90
21906;DHT22;11117;48.644;9.006;2022-09-29T04:20:32;7.30;99.90
21906;DHT22;11117;48.644;9.006;2022-09-29T04:22:59;7.20;99.90
21906;DHT22;11117;48.644;9.006;2022-09-29T04:25:24;6.90;99.90
21906;DHT22;11117;48.644;9.006;2022-09-29T04:27:50;6.80;99.90
21906;DHT22;11117;48.644;9.006;2022-09-29T04:30:16;6.80;99.90
21906;DHT22;11117;48.644;9.006;2022-09-29T04:32:41;6.80;99.90
21906;DHT22;11117;48.644;9.006;2022-09-29T04:35:07;6.80;99.90
21906;DHT22;11117;48.644;9.006;2022-09-29T04:37:33;6.80;99.90
21906;DHT22;11117;48.644;9.006;2022-09-29T04:39:59;6.80;99.90
21906;DHT22;11117;48.644;9.006;2022-09-29T04:42:24;6.80;99.90
21906;DHT22;11117;48.644;9.006;2022-09-29T04:44:50;6.80;99.90
21906;DHT22;11117;48.644;9.006;2022-09-29T04:47:16;6.80;99.90
21906;DHT22;11117;48.644;9.006;2022-09-29T04:49:41;6.80;99.90
21906;DHT22;11117;48.644;9.006;2022-09-29T04:52:10;6.80;99.90
21906;DHT22;11117;48.644;9.006;2022-09-29T04:54:36;6.60;99.90
21906;DHT22;11117;48.644;9.006;2022-09-29T04:57:01;6.50;99.90
21906;DHT22;11117;48.644;9.006;2022-09-29T04:59:27;6.50;99.90
21906;DHT22;11117;48.644;9.006;2022-09-29T05:01:53;6.50;99.90
21906;DHT22;11117;48.644;9.006;2022-09-29T05:04:19;6.60;99.90
21906;DHT22;11117;48.644;9.006;2022-09-29T05:06:44;6.60;99.90
21906;DHT22;11117;48.644;9.006;2022-09-29T05:09:10;6.60;99.90
21906;DHT22;11117;48.644;9.006;2022-09-29T05:11:36;6.70;99.90
21906;DHT22;11117;48.644;9.006;2022-09-29T05:14:01;6.60;99.90
21906;DHT22;11117;48.644;9.006;2022-09-29T05:16:27;6.70;99.90
21906;DHT22;11117;48.644;9.006;2022-09-29T05:18:53;6.70;99.90
21906;DHT22;11117;48.644;9.006;2022-09-29T05:21:19;6.80;99.90
21906;DHT22;11117;48.644;9.006;2022-09-29T05:23:44;6.80;99.90
21906;DHT22;11117;48.644;9.006;2022-09-29T05:26:11;6.90;99.90
21906;DHT22;11117;48.644;9.006;2022-09-29T05:28:41;6.90;99.90
21906;DHT22;11117;48.644;9.006;2022-09-29T05:31:07;6.90;99.90
21906;DHT22;11117;48.644;9.006;2022-09-29T05:33:34;7.00;99.90
21906;DHT22;11117;48.644;9.006;2022-09-29T05:36:00;7.00;99.90
21906;DHT22;11117;48.644;9.006;2022-09-29T05:38:25;7.10;99.90
21906;DHT22;11117;48.644;9.006;2022-09-29T05:40:51;7.10;99.90
21906;DHT22;11117;48.644;9.006;2022-09-29T05:43:18;7.10;99.90
21906;DHT22;11117;48.644;9.006;2022-09-29T05:45:43;7.10;99.90
21906;DHT22;11117;48.644;9.006;2022-09-29T05:48:09;7.20;99.90
21906;DHT22;11117;48.644;9.006;2022-09-29T05:50:35;7.20;99.90
21906;DHT22;11117;48.644;9.006;2022-09-29T05:53:02;7.20;99.90
21906;DHT22;11117;48.644;9.006;2022-09-29T05:55:27;7.10;99.90
21906;DHT22;11117;48.644;9.006;2022-09-29T05:57:53;7.20;99.90
21906;DHT22;11117;48.644;9.006;2022-09-29T06:00:18;7.30;99.90
21906;DHT22;11117;48.644;9.006;2022-09-29T06:02:44;7.30;99.90
21906;DHT22;11117;48.644;9.006;2022-09-29T06:05:09;7.20;99.90
21906;DHT22;11117;48.644;9.006;2022-09-29T06:07:35;7.00;99.90
21906;DHT22;11117;48.644;9.006;2022-09-29T06:10:00;7.00;99.90
21906;DHT22;11117;48.644;9.006;2022-09-29T06:12:26;7.00;99.90
21906;DHT22;11117;48.644;9.006;2022-09-29T06:14:51;7.20;99.90
21906;DHT22;11117;48.644;9.006;2022-09-29T06:17:17;7.30;99.90
21906;DHT22;11117;48.644;9.006;2022-09-29T06:19:42;7.40;99.90
21906;DHT22;11117;48.644;9.006;2022-09-29T06:22:08;7.40;99.90
21906;DHT22;11117;48.644;9.006;2022-09-29T06:24:33;7.30;99.90
21906;DHT22;11117;48.644;9.006;2022-09-29T06:26:59;7.10;99.90
21906;DHT22;11117;48.644;9.006;2022-09-29T06:29:24;7.00;99.90
21906;DHT22;11117;48.644;9.006;2022-09-29T06:31:50;7.00;99.90
21906;DHT22;11117;48.644;9.006;2022-09-29T06:34:15;7.00;99.90
21906;DHT22;11117;48.644;9.006;2022-09-29T06:36:43;6.80;99.90
21906;DHT22;11117;48.644;9.006;2022-09-29T06:39:12;6.70;99.90
21906;DHT22;11117;48.644;9.006;2022-09-29T06:41:37;6.80;99.90
21906;DHT22;11117;48.644;9.006;2022-09-29T06:44:03;6.80;99.90
21906;DHT22;11117;48.644;9.006;2022-09-29T06:46:29;7.00;99.90
21906;DHT22;11117;48.644;9.006;2022-09-29T06:48:55;7.20;99.90
21906;DHT22;11117;48.644;9.006;2022-09-29T06:51:22;7.40;99.90
21906;DHT22;11117;48.644;9.006;2022-09-29T06:53:49;7.60;99.90
21906;DHT22;11117;48.644;9.006;2022-09-29T06:56:15;7.90;99.90
21906;DHT22;11117;48.644;9.006;2022-09-29T06:58:41;8.00;99.90
21906;DHT22;11117;48.644;9.006;2022-09-29T07:01:06;8.20;99.90
21906;DHT22;11117;48.644;9.006;2022-09-29T07:03:33;8.40;99.90
21906;DHT22;11117;48.644;9.006;2022-09-29T07:06:06;8.60;99.90
21906;DHT22;11117;48.644;9.006;2022-09-29T07:08:32;8.80;99.90
21906;DHT22;11117;48.644;9.006;2022-09-29T07:10:57;8.90;99.90
21906;DHT22;11117;48.644;9.006;2022-09-29T07:13:24;9.10;99.90
21906;DHT22;11117;48.644;9.006;2022-09-29T07:15:49;9.20;99.90
21906;DHT22;11117;48.644;9.006;2022-09-29T07:18:15;9.30;99.90
21906;DHT22;11117;48.644;9.006;2022-09-29T07:20:40;9.30;99.90
21906;DHT22;11117;48.644;9.006;2022-09-29T07:23:07;9.50;99.90
21906;DHT22;11117;48.644;9.006;2022-09-29T07:25:32;9.60;99.90
21906;DHT22;11117;48.644;9.006;2022-09-29T07:27:58;9.70;99.90
21906;DHT22;11117;48.644;9.006;2022-09-29T07:30:23;9.80;99.90
21906;DHT22;11117;48.644;9.006;2022-09-29T07:32:49;9.90;99.90
21906;DHT22;11117;48.644;9.006;2022-09-29T07:35:14;10.00;99.90
21906;DHT22;11117;48.644;9.006;2022-09-29T07:37:40;10.00;99.90
21906;DHT22;11117;48.644;9.006;2022-09-29T07:40:05;10.10;99.90
21906;DHT22;11117;48.644;9.006;2022-09-29T07:42:31;10.30;99.90
21906;DHT22;11117;48.644;9.006;2022-09-29T07:44:57;10.50;99.90
21906;DHT22;11117;48.644;9.006;2022-09-29T07:47:22;10.80;99.90
21906;DHT22;11117;48.644;9.006;2022-09-29T07:49:48;10.90;99.90
21906;DHT22;11117;48.644;9.006;2022-09-29T07:52:14;11.10;99.90
21906;DHT22;11117;48.644;9.006;2022-09-29T07:54:39;11.20;99.90
21906;DHT22;11117;48.644;9.006;2022-09-29T07:57:05;11.40;99.90
21906;DHT22;11117;48.644;9.006;2022-09-29T07:59:30;11.50;99.90
21906;DHT22;11117;48.644;9.006;2022-09-29T08:01:56;11.60;99.90
21906;DHT22;11117;48.644;9.006;2022-09-29T08:04:22;11.60;99.90
21906;DHT22;11117;48.644;9.006;2022-09-29T08:06:48;11.80;99.90
21906;DHT22;11117;48.644;9.006;2022-09-29T08:09:14;11.90;99.90
21906;DHT22;11117;48.644;9.006;2022-09-29T08:11:41;12.00;99.90
21906;DHT22;11117;48.644;9.006;2022-09-29T08:14:08;12.00;99.90
21906;DHT22;11117;48.644;9.006;2022-09-29T08:16:35;12.10;99.90
21906;DHT22;11117;48.644;9.006;2022-09-29T08:19:01;12.20;99.90
21906;DHT22;11117;48.644;9.006;2022-09-29T08:21:29;12.40;99.90
21906;DHT22;11117;48.644;9.006;2022-09-29T08:23:55;12.50;99.90
21906;DHT22;11117;48.644;9.006;2022-09-29T08:26:21;12.70;99.90
21906;DHT22;11117;48.644;9.006;2022-09-29T08:28:47;12.70;99.90
21906;DHT22;11117;48.644;9.006;2022-09-29T08:31:14;12.80;99.90
21906;DHT22;11117;48.644;9.006;2022-09-29T08:33:40;12.90;99.90
21906;DHT22;11117;48.644;9.006;2022-09-29T08:36:06;13.00;99.90
21906;DHT22;11117;48.644;9.006;2022-09-29T08:38:32;13.10;99.90
21906;DHT22;11117;48.644;9.006;2022-09-29T08:41:02;13.20;99.90
21906;DHT22;11117;48.644;9.006;2022-09-29T08:43:36;13.40;99.90
21906;DHT22;11117;48.644;9.006;2022-09-29T08:46:08;13.60;99.90
21906;DHT22;11117;48.644;9.006;2022-09-29T08:48:40;13.70;99.90
21906;DHT22;11117;48.644;9.006;2022-09-29T08:51:28;13.70;99.90
21906;DHT22;11117;48.644;9.006;2022-09-29T08:53:56;14.00;99.90
21906;DHT22;11117;48.644;9.006;2022-09-29T08:56:27;14.00;99.90
21906;DHT22;11117;48.644;9.006;2022-09-29T08:58:53;14.00;99.90
21906;DHT22;11117;48.644;9.006;2022-09-29T09:01:31;14.00;99.90
21906;DHT22;11117;48.644;9.006;2022-09-29T09:07:04;14.10;99.90
21906;DHT22;11117;48.644;9.006;2022-09-29T09:15:33;13.70;99.90
21906;DHT22;11117;48.644;9.006;2022-09-29T09:23:21;14.40;99.90
21906;DHT22;11117;48.644;9.006;2022-09-29T09:25:54;14.40;99.90
21906;DHT22;11117;48.644;9.006;2022-09-29T09:31:41;14.60;99.90
21906;DHT22;11117;48.644;9.006;2022-09-29T09:34:21;14.70;99.90
21906;DHT22;11117;48.644;9.006;2022-09-29T09:39:18;14.90;99.90
21906;DHT22;11117;48.644;9.006;2022-09-29T09:41:47;15.00;99.90
21906;DHT22;11117;48.644;9.006;2022-09-29T09:46:51;15.00;99.90
21906;DHT22;11117;48.644;9.006;2022-09-29T09:49:26;15.20;99.90
21906;DHT22;11117;48.644;9.006;2022-09-29T09:52:10;15.50;99.90
21906;DHT22;11117;48.644;9.006;2022-09-29T09:55:03;15.80;99.90
21906;DHT22;11117;48.644;9.006;2022-09-29T09:57:54;15.80;99.90
21906;DHT22;11117;48.644;9.006;2022-09-29T10:00:25;15.70;99.90
21906;DHT22;11117;48.644;9.006;2022-09-29T10:02:54;15.60;99.90
21906;DHT22;11117;48.644;9.006;2022-09-29T10:05:23;15.70;99.90
21906;DHT22;11117;48.644;9.006;2022-09-29T10:07:50;15.60;99.90
21906;DHT22;11117;48.644;9.006;2022-09-29T10:10:19;15.70;99.90
21906;DHT22;11117;48.644;9.006;2022-09-29T10:12:45;15.80;99.90
21906;DHT22;11117;48.644;9.006;2022-09-29T10:15:21;16.00;99.90
21906;DHT22;11117;48.644;9.006;2022-09-29T10:18:35;16.20;99.90
21906;DHT22;11117;48.644;9.006;2022-09-29T10:20:40;16.40;99.90
21906;DHT22;11117;48.644;9.006;2022-09-29T10:23:29;16.40;99.90
21906;DHT22;11117;48.644;9.006;2022-09-29T10:28:50;16.30;99.90
21906;DHT22;11117;48.644;9.006;2022-09-29T10:31:20;16.50;99.90
21906;DHT22;11117;48.644;9.006;2022-09-29T10:34:00;16.30;99.90
21906;DHT22;11117;48.644;9.006;2022-09-29T10:36:31;16.20;99.70
21906;DHT22;11117;48.644;9.006;2022-09-29T10:38:58;16.40;99.10
21906;DHT22;11117;48.644;9.006;2022-09-29T10:41:23;16.60;99.50
21906;DHT22;11117;48.644;9.006;2022-09-29T10:43:49;16.80;99.70
21906;DHT22;11117;48.644;9.006;2022-09-29T10:46:54;16.90;99.50
21906;DHT22;11117;48.644;9.006;2022-09-29T10:49:25;17.00;98.10
21906;DHT22;11117;48.644;9.006;2022-09-29T10:54:39;17.30;97.80
21906;DHT22;11117;48.644;9.006;2022-09-29T10:57:19;17.50;97.90
21906;DHT22;11117;48.644;9.006;2022-09-29T10:59:49;17.60;97.00
21906;DHT22;11117;48.644;9.006;2022-09-29T11:02:21;17.70;97.10
21906;DHT22;11117;48.644;9.006;2022-09-29T11:04:48;17.80;95.90
21906;DHT22;11117;48.644;9.006;2022-09-29T11:07:14;17.80;96.00
21906;DHT22;11117;48.644;9.006;2022-09-29T11:09:41;17.80;95.00
21906;DHT22;11117;48.644;9.006;2022-09-29T11:12:31;17.80;95.50
21906;DHT22;11117;48.644;9.006;2022-09-29T11:14:59;17.90;95.20
21906;DHT22;11117;48.644;9.006;2022-09-29T11:17:30;18.10;95.30
21906;DHT22;11117;48.644;9.006;2022-09-29T11:20:04;18.10;94.50
21906;DHT22;11117;48.644;9.006;2022-09-29T11:25:41;18.20;95.10
21906;DHT22;11117;48.644;9.006;2022-09-29T11:28:29;18.20;95.30
21906;DHT22;11117;48.644;9.006;2022-09-29T11:34:32;18.20;94.80
21906;DHT22;11117;48.644;9.006;2022-09-29T11:40:10;18.20;93.90
21906;DHT22;11117;48.644;9.006;2022-09-29T11:50:58;18.50;93.00
21906;DHT22;11117;48.644;9.006;2022-09-29T11:53:49;18.50;92.60
21906;DHT22;11117;48.644;9.006;2022-09-29T12:13:08;18.00;90.70
21906;DHT22;11117;48.644;9.006;2022-09-29T12:18:19;18.20;90.80
21906;DHT22;11117;48.644;9.006;2022-09-29T12:20:49;18.20;91.10
21906;DHT22;11117;48.644;9.006;2022-09-29T12:23:21;18.20;90.60
21906;DHT22;11117;48.644;9.006;2022-09-29T12:26:02;18.30;90.50
21906;DHT22;11117;48.644;9.006;2022-09-29T12:31:15;17.60;90.10
21906;DHT22;11117;48.644;9.006;2022-09-29T12:37:00;17.90;90.60
21906;DHT22;11117;48.644;9.006;2022-09-29T12:39:41;17.50;89.50
21906;DHT22;11117;48.644;9.006;2022-09-29T12:42:39;16.60;90.10
21906;DHT22;11117;48.644;9.006;2022-09-29T12:45:10;16.60;90.80
21906;DHT22;11117;48.644;9.006;2022-09-29T12:50:38;16.70;90.80
21906;DHT22;11117;48.644;9.006;2022-09-29T12:53:17;16.70;91.50
21906;DHT22;11117;48.644;9.006;2022-09-29T12:56:00;17.10;91.90
21906;DHT22;11117;48.644;9.006;2022-09-29T12:58:47;17.20;91.00
21906;DHT22;11117;48.644;9.006;2022-09-29T13:09:30;16.60;91.10
21906;DHT22;11117;48.644;9.006;2022-09-29T13:17:44;17.20;90.30
21906;DHT22;11117;48.644;9.006;2022-09-29T13:23:46;17.20;90.40
21906;DHT22;11117;48.644;9.006;2022-09-29T13:28:48;16.60;90.20
21906;DHT22;11117;48.644;9.006;2022-09-29T13:31:18;16.30;90.40
21906;DHT22;11117;48.644;9.006;2022-09-29T13:33:55;16.50;90.90
21906;DHT22;11117;48.644;9.006;2022-09-29T13:36:27;16.70;90.40
21906;DHT22;11117;48.644;9.006;2022-09-29T13:38:57;16.60;89.10
21906;DHT22;11117;48.644;9.006;2022-09-29T13:51:56;16.20;90.90
21906;DHT22;11117;48.644;9.006;2022-09-29T13:56:49;16.70;91.50
21906;DHT22;11117;48.644;9.006;2022-09-29T13:59:20;16.60;89.90
21906;DHT22;11117;48.644;9.006;2022-09-29T14:01:47;16.40;90.00
21906;DHT22;11117;48.644;9.006;2022-09-29T14:04:45;16.30;90.60
21906;DHT22;11117;48.644;9.006;2022-09-29T14:10:14;16.00;90.40
21906;DHT22;11117;48.644;9.006;2022-09-29T14:12:45;16.20;90.80
21906;DHT22;11117;48.644;9.006;2022-09-29T14:15:15;16.50;91.40
21906;DHT22;11117;48.644;9.006;2022-09-29T14:17:46;16.70;90.60
21906;DHT22;11117;48.644;9.006;2022-09-29T14:20:25;16.90;91.00
21906;DHT22;11117;48.644;9.006;2022-09-29T14:22:56;17.00;89.60
21906;DHT22;11117;48.644;9.006;2022-09-29T14:33:13;16.40;87.50
21906;DHT22;11117;48.644;9.006;2022-09-29T14:35:43;16.20;88.10
21906;DHT22;11117;48.644;9.006;2022-09-29T14:40:55;16.20;90.40
21906;DHT22;11117;48.644;9.006;2022-09-29T14:43:40;16.30;89.70
21906;DHT22;11117;48.644;9.006;2022-09-29T14:52:08;16.30;89.90
21906;DHT22;11117;48.644;9.006;2022-09-29T14:55:01;16.20;88.90
21906;DHT22;11117;48.644;9.006;2022-09-29T14:57:39;16.30;90.00
21906;DHT22;11117;48.644;9.006;2022-09-29T15:00:21;15.90;88.10
21906;DHT22;11117;48.644;9.006;2022-09-29T15:02:54;15.70;90.20
21906;DHT22;11117;48.644;9.006;2022-09-29T15:05:27;15.40;88.70
21906;DHT22;11117;48.644;9.006;2022-09-29T15:07:55;15.40;89.10
21906;DHT22;11117;48.644;9.006;2022-09-29T15:10:28;15.10;88.50
21906;DHT22;11117;48.644;9.006;2022-09-29T15:13:24;15.20;90.00
21906;DHT22;11117;48.644;9.006;2022-09-29T15:15:57;15.30;89.60
21906;DHT22;11117;48.644;9.006;2022-09-29T15:26:34;15.40;90.40
21906;DHT22;11117;48.644;9.006;2022-09-29T15:29:05;15.10;89.10
21906;DHT22;11117;48.644;9.006;2022-09-29T15:31:31;15.10;90.30
21906;DHT22;11117;48.644;9.006;2022-09-29T15:33:57;15.10;90.60
21906;DHT22;11117;48.644;9.006;2022-09-29T15:36:24;15.20;90.50
21906;DHT22;11117;48.644;9.006;2022-09-29T15:39:38;15.20;90.30
21906;DHT22;11117;48.644;9.006;2022-09-29T15:41:37;15.10;89.70
21906;DHT22;11117;48.644;9.006;2022-09-29T15:44:14;14.80;93.00
21906;DHT22;11117;48.644;9.006;2022-09-29T15:46:48;14.70;94.10
21906;DHT22;11117;48.644;9.006;2022-09-29T15:51:44;14.50;95.00
21906;DHT22;11117;48.644;9.006;2022-09-29T15:54:14;14.10;95.50
21906;DHT22;11117;48.644;9.006;2022-09-29T15:56:39;14.10;96.10
21906;DHT22;11117;48.644;9.006;2022-09-29T15:59:17;14.00;96.40
21906;DHT22;11117;48.644;9.006;2022-09-29T16:01:42;14.10;97.00
21906;DHT22;11117;48.644;9.006;2022-09-29T16:04:08;13.90;97.30
21906;DHT22;11117;48.644;9.006;2022-09-29T16:06:34;13.90;97.50
21906;DHT22;11117;48.644;9.006;2022-09-29T16:09:05;13.90;97.70
21906;DHT22;11117;48.644;9.006;2022-09-29T16:11:38;13.80;97.70
21906;DHT22;11117;48.644;9.006;2022-09-29T16:14:09;13.70;97.70
21906;DHT22;11117;48.644;9.006;2022-09-29T16:16:43;13.60;97.80
21906;DHT22;11117;48.644;9.006;2022-09-29T16:19:25;13.60;98.00
21906;DHT22;11117;48.644;9.006;2022-09-29T16:21:53;13.50;98.10
21906;DHT22;11117;48.644;9.006;2022-09-29T16:24:20;13.40;98.10
21906;DHT22;11117;48.644;9.006;2022-09-29T16:26:52;13.40;98.40
21906;DHT22;11117;48.644;9.006;2022-09-29T16:31:45;13.30;98.70
21906;DHT22;11117;48.644;9.006;2022-09-29T16:37:00;13.30;99.00
21906;DHT22;11117;48.644;9.006;2022-09-29T16:42:21;13.10;99.60
21906;DHT22;11117;48.644;9.006;2022-09-29T16:44:52;13.00;99.90
21906;DHT22;11117;48.644;9.006;2022-09-29T16:47:26;13.00;99.90
21906;DHT22;11117;48.644;9.006;2022-09-29T16:50:01;12.80;99.90
21906;DHT22;11117;48.644;9.006;2022-09-29T16:52:45;12.70;99.90
21906;DHT22;11117;48.644;9.006;2022-09-29T16:55:15;12.70;99.90
21906;DHT22;11117;48.644;9.006;2022-09-29T16:57:54;12.60;99.90
21906;DHT22;11117;48.644;9.006;2022-09-29T17:00:20;12.60;99.90
21906;DHT22;11117;48.644;9.006;2022-09-29T17:02:45;12.50;99.90
21906;DHT22;11117;48.644;9.006;2022-09-29T17:05:11;12.40;99.90
21906;DHT22;11117;48.644;9.006;2022-09-29T17:07:40;12.30;99.90
21906;DHT22;11117;48.644;9.006;2022-09-29T17:10:06;12.20;99.90
21906;DHT22;11117;48.644;9.006;2022-09-29T17:12:31;12.20;99.90
21906;DHT22;11117;48.644;9.006;2022-09-29T17:14:57;12.10;99.90
21906;DHT22;11117;48.644;9.006;2022-09-29T17:17:25;12.00;99.90
21906;DHT22;11117;48.644;9.006;2022-09-29T17:19:52;12.00;99.90
21906;DHT22;11117;48.644;9.006;2022-09-29T17:22:31;11.80;99.90
21906;DHT22;11117;48.644;9.006;2022-09-29T17:24:57;11.80;99.90
21906;DHT22;11117;48.644;9.006;2022-09-29T17:27:24;11.60;99.90
21906;DHT22;11117;48.644;9.006;2022-09-29T17:29:50;11.60;99.90
21906;DHT22;11117;48.644;9.006;2022-09-29T17:32:15;11.50;99.90
21906;DHT22;11117;48.644;9.006;2022-09-29T17:34:41;11.40;99.90
21906;DHT22;11117;48.644;9.006;2022-09-29T17:37:07;11.40;99.90
21906;DHT22;11117;48.644;9.006;2022-09-29T17:39:33;11.40;99.90
21906;DHT22;11117;48.644;9.006;2022-09-29T17:41:58;11.30;99.90
21906;DHT22;11117;48.644;9.006;2022-09-29T17:44:24;11.40;99.90
21906;DHT22;11117;48.644;9.006;2022-09-29T17:46:50;11.30;99.90
21906;DHT22;11117;48.644;9.006;2022-09-29T17:49:16;11.30;99.90
21906;DHT22;11117;48.644;9.006;2022-09-29T17:51:42;11.30;99.90
21906;DHT22;11117;48.644;9.006;2022-09-29T17:54:07;11.30;99.90
21906;DHT22;11117;48.644;9.006;2022-09-29T17:56:38;11.30;99.90
21906;DHT22;11117;48.644;9.006;2022-09-29T17:59:04;11.30;99.90
21906;DHT22;11117;48.644;9.006;2022-09-29T18:01:31;11.30;99.90
21906;DHT22;11117;48.644;9.006;2022-09-29T18:03:57;11.20;99.90
21906;DHT22;11117;48.644;9.006;2022-09-29T18:06:22;11.10;99.90
21906;DHT22;11117;48.644;9.006;2022-09-29T18:08:48;11.10;99.90
21906;DHT22;11117;48.644;9.006;2022-09-29T18:11:14;11.10;99.90
21906;DHT22;11117;48.644;9.006;2022-09-29T18:13:39;11.10;99.90
21906;DHT22;11117;48.644;9.006;2022-09-29T18:16:05;10.90;99.90
21906;DHT22;11117;48.644;9.006;2022-09-29T18:18:30;11.00;99.90
21906;DHT22;11117;48.644;9.006;2022-09-29T18:20:56;10.90;99.90
21906;DHT22;11117;48.644;9.006;2022-09-29T18:23:22;10.80;99.90
21906;DHT22;11117;48.644;9.006;2022-09-29T18:25:49;10.90;99.90
21906;DHT22;11117;48.644;9.006;2022-09-29T18:28:15;10.80;99.90
21906;DHT22;11117;48.644;9.006;2022-09-29T18:30:42;10.90;99.90
21906;DHT22;11117;48.644;9.006;2022-09-29T18:33:11;10.90;99.90
21906;DHT22;11117;48.644;9.006;2022-09-29T18:35:37;10.90;99.90
21906;DHT22;11117;48.644;9.006;2022-09-29T18:38:03;10.80;99.90
21906;DHT22;11117;48.644;9.006;2022-09-29T18:40:29;10.80;99.90
21906;DHT22;11117;48.644;9.006;2022-09-29T18:42:56;10.80;99.90
21906;DHT22;11117;48.644;9.006;2022-09-29T18:45:24;10.80;99.90